createdAt,value
2019-02-05T00:01:06.077Z,6.50
2019-02-05T00:03:33.273Z,6.63
2019-02-05T00:06:00.377Z,6.60
2019-02-05T00:08:27.559Z,6.63
2019-02-05T00:10:55.056Z,6.53
2019-02-05T00:13:22.198Z,6.80
2019-02-05T00:15:49.757Z,7.73
2019-02-05T00:18:16.824Z,6.53
2019-02-05T00:20:44.412Z,6.73
2019-02-05T00:23:11.589Z,6.00
2019-02-05T00:25:38.632Z,7.03
2019-02-05T00:28:06.108Z,6.37
2019-02-05T00:30:33.315Z,6.97
2019-02-05T00:33:00.354Z,6.67
2019-02-05T00:35:27.503Z,6.10
2019-02-05T00:37:54.710Z,6.80
2019-02-05T00:40:21.901Z,7.00
2019-02-05T00:42:49.086Z,7.03
2019-02-05T00:45:16.308Z,7.30
2019-02-05T00:47:43.368Z,7.40
2019-02-05T00:50:10.548Z,6.87
2019-02-05T00:52:37.984Z,6.43
2019-02-05T00:55:06.416Z,7.73
2019-02-05T00:57:33.592Z,7.43
2019-02-05T01:00:00.800Z,6.93
2019-02-05T01:02:27.861Z,6.57
2019-02-05T01:04:55.042Z,7.87
2019-02-05T01:07:23.276Z,8.00
2019-02-05T01:09:50.447Z,8.20
2019-02-05T01:12:17.731Z,7.30
2019-02-05T01:14:44.904Z,7.97
2019-02-05T01:17:12.059Z,8.07
2019-02-05T01:19:39.603Z,7.43
2019-02-05T01:22:06.968Z,7.20
2019-02-05T01:24:34.111Z,8.00
2019-02-05T01:27:01.288Z,7.67
2019-02-05T01:29:28.457Z,7.63
2019-02-05T01:31:55.597Z,6.90
2019-02-05T01:34:22.741Z,7.50
2019-02-05T01:36:49.907Z,7.27
2019-02-05T01:39:17.401Z,8.23
2019-02-05T01:41:44.569Z,7.43
2019-02-05T01:44:11.677Z,7.50
2019-02-05T01:46:38.862Z,6.93
2019-02-05T01:49:05.925Z,7.77
2019-02-05T01:51:33.158Z,8.00
2019-02-05T01:54:00.217Z,7.97
2019-02-05T01:56:27.817Z,7.20
2019-02-05T01:58:54.993Z,7.67
2019-02-05T02:01:22.196Z,8.60
2019-02-05T02:03:49.690Z,7.50
2019-02-05T02:06:16.880Z,7.67
2019-02-05T02:08:44.995Z,7.90
2019-02-05T02:11:12.147Z,8.37
2019-02-05T02:13:39.384Z,7.40
2019-02-05T02:16:06.530Z,8.27
2019-02-05T02:18:33.731Z,9.30
2019-02-05T02:21:00.928Z,9.10
2019-02-05T02:23:28.094Z,7.93
2019-02-05T02:25:55.193Z,8.50
2019-02-05T02:28:22.389Z,8.20
2019-02-05T02:30:49.438Z,9.23
2019-02-05T02:33:17.102Z,9.17
2019-02-05T02:35:44.187Z,8.80
2019-02-05T02:38:11.369Z,8.73
2019-02-05T02:40:38.508Z,9.60
2019-02-05T02:43:05.699Z,9.10
2019-02-05T02:45:32.837Z,9.20
2019-02-05T02:48:00.293Z,9.97
2019-02-05T02:50:27.760Z,8.57
2019-02-05T02:52:55.252Z,9.30
2019-02-05T02:55:22.417Z,9.07
2019-02-05T02:57:49.621Z,8.43
2019-02-05T03:00:17.716Z,9.50
2019-02-05T03:02:45.103Z,9.80
2019-02-05T03:05:14.033Z,8.50
2019-02-05T03:07:41.211Z,10.03
2019-02-05T03:10:12.457Z,9.17
2019-02-05T03:12:39.658Z,8.53
2019-02-05T03:15:07.190Z,8.97
2019-02-05T03:17:34.324Z,9.70
2019-02-05T03:20:01.539Z,9.40
2019-02-05T03:22:28.882Z,8.97
2019-02-05T03:24:56.018Z,7.80
2019-02-05T03:27:23.233Z,9.03
2019-02-05T03:29:50.975Z,8.80
2019-02-05T03:32:18.171Z,9.37
2019-02-05T03:34:45.388Z,8.70
2019-02-05T03:37:12.572Z,10.00
2019-02-05T03:39:39.719Z,9.50
2019-02-05T03:42:06.912Z,8.50
2019-02-05T03:44:34.081Z,9.67
2019-02-05T03:47:01.360Z,9.20
2019-02-05T03:49:29.230Z,10.23
2019-02-05T03:52:07.454Z,9.40
2019-02-05T03:55:10.789Z,8.97
2019-02-05T03:58:20.659Z,8.20
2019-02-05T04:01:25.198Z,9.20
2019-02-05T04:04:25.886Z,9.47
2019-02-05T04:07:21.526Z,9.33
2019-02-05T04:10:28.926Z,10.33
2019-02-05T04:13:25.860Z,9.60
2019-02-05T04:16:32.137Z,9.57
2019-02-05T04:19:22.626Z,9.33
2019-02-05T04:22:05.745Z,9.60
2019-02-05T04:25:09.114Z,9.77
2019-02-05T04:28:05.141Z,8.90
2019-02-05T04:30:42.218Z,8.50
2019-02-05T04:34:11.981Z,8.80
2019-02-05T04:37:03.620Z,9.87
2019-02-05T04:40:11.335Z,8.93
2019-02-05T04:42:48.386Z,9.47
2019-02-05T04:45:55.528Z,8.97
2019-02-05T04:49:10.531Z,9.90
2019-02-05T04:52:19.560Z,9.40
2019-02-05T04:55:27.980Z,9.70
2019-02-05T04:58:26.049Z,10.07
2019-02-05T05:01:25.752Z,10.23
2019-02-05T05:04:39.650Z,9.40
2019-02-05T05:07:52.054Z,10.47
2019-02-05T05:10:19.217Z,10.20
2019-02-05T05:12:46.379Z,9.00
2019-02-05T05:15:13.555Z,9.87
2019-02-05T05:17:40.610Z,11.93
2019-02-05T05:20:09.972Z,10.20
2019-02-05T05:22:37.136Z,9.90
2019-02-05T05:25:06.036Z,9.50
2019-02-05T05:27:33.457Z,10.10
2019-02-05T05:30:02.098Z,10.37
2019-02-05T05:32:29.584Z,10.60
2019-02-05T05:34:56.788Z,10.70
2019-02-05T05:37:23.998Z,10.40
2019-02-05T05:39:51.128Z,10.43
2019-02-05T05:42:18.276Z,10.23
2019-02-05T05:44:45.776Z,11.10
2019-02-05T05:47:13.004Z,8.93
2019-02-05T05:49:40.198Z,11.13
2019-02-05T05:52:07.379Z,10.10
2019-02-05T05:54:37.228Z,10.30
2019-02-05T05:57:04.380Z,11.03
2019-02-05T05:59:31.594Z,9.70
2019-02-05T06:01:58.739Z,10.50
2019-02-05T06:04:25.921Z,11.13
2019-02-05T06:06:53.098Z,10.70
2019-02-05T06:09:20.550Z,10.83
2019-02-05T06:11:47.751Z,10.40
2019-02-05T06:14:14.976Z,10.20
2019-02-05T06:16:42.164Z,10.93
2019-02-05T06:19:09.357Z,12.60
2019-02-05T06:21:36.561Z,10.47
2019-02-05T06:24:04.368Z,10.97
2019-02-05T06:26:31.521Z,11.73
2019-02-05T06:28:58.688Z,10.90
2019-02-05T06:31:25.895Z,11.27
2019-02-05T06:33:53.079Z,11.37
2019-02-05T06:36:20.301Z,11.20
2019-02-05T06:38:47.468Z,12.13
2019-02-05T06:41:14.542Z,10.77
2019-02-05T06:43:41.769Z,12.30
2019-02-05T06:46:08.941Z,10.67
2019-02-05T06:48:36.133Z,11.90
2019-02-05T06:51:03.335Z,11.97
2019-02-05T06:53:30.501Z,12.87
2019-02-05T06:55:57.693Z,12.33
2019-02-05T06:58:24.925Z,12.77
2019-02-05T07:00:52.071Z,12.13
2019-02-05T07:03:19.550Z,11.83
2019-02-05T07:05:46.780Z,11.27
2019-02-05T07:08:14.151Z,11.67
2019-02-05T07:10:41.464Z,11.30
2019-02-05T07:13:09.228Z,11.67
2019-02-05T07:15:36.624Z,12.20
2019-02-05T07:18:06.568Z,12.60
2019-02-05T07:20:34.987Z,12.30
2019-02-05T07:23:02.303Z,12.23
2019-02-05T07:25:29.608Z,11.30
2019-02-05T07:27:56.995Z,12.50
2019-02-05T07:30:24.500Z,12.40
2019-02-05T07:32:51.915Z,11.87
2019-02-05T07:35:19.341Z,12.17
2019-02-05T07:37:46.736Z,12.83
2019-02-05T07:40:15.659Z,12.40
2019-02-05T07:42:43.253Z,11.70
2019-02-05T07:45:12.482Z,11.43
2019-02-05T07:47:39.689Z,11.83
2019-02-05T07:50:10.201Z,11.50
2019-02-05T07:52:37.562Z,12.00
2019-02-05T07:55:05.307Z,11.70
2019-02-05T07:57:32.625Z,13.17
2019-02-05T08:00:00.232Z,10.83
2019-02-05T08:02:27.595Z,12.23
2019-02-05T08:04:54.955Z,11.00
2019-02-05T08:07:22.552Z,13.13
2019-02-05T08:09:49.775Z,12.60
2019-02-05T08:12:17.339Z,11.30
2019-02-05T08:14:45.503Z,12.63
2019-02-05T08:17:12.844Z,13.20
2019-02-05T08:19:40.209Z,11.90
2019-02-05T08:22:07.557Z,11.83
2019-02-05T08:24:34.946Z,12.50
2019-02-05T08:27:02.451Z,11.57
2019-02-05T08:29:29.736Z,10.57
2019-02-05T08:31:57.110Z,11.47
2019-02-05T08:34:24.731Z,11.80
2019-02-05T08:36:52.113Z,14.10
2019-02-05T08:39:19.437Z,12.00
2019-02-05T08:41:46.824Z,11.60
2019-02-05T08:44:14.436Z,12.27
2019-02-05T08:46:41.677Z,13.07
2019-02-05T08:49:09.103Z,11.33
2019-02-05T08:51:36.331Z,11.63
2019-02-05T08:54:03.888Z,11.83
2019-02-05T08:56:31.239Z,9.57
2019-02-05T08:58:58.571Z,10.80
2019-02-05T09:01:25.874Z,11.77
2019-02-05T09:03:53.444Z,11.30
2019-02-05T09:06:20.739Z,12.47
2019-02-05T09:08:48.094Z,12.10
2019-02-05T09:11:15.474Z,13.07
2019-02-05T09:13:42.794Z,12.30
2019-02-05T09:16:10.197Z,13.07
2019-02-05T09:18:39.102Z,12.43
2019-02-05T09:21:06.300Z,12.63
2019-02-05T09:23:34.031Z,12.00
2019-02-05T09:26:01.412Z,11.87
2019-02-05T09:28:28.700Z,13.70
2019-02-05T09:30:55.985Z,12.00
2019-02-05T09:33:23.325Z,12.80
2019-02-05T09:35:50.517Z,13.07
2019-02-05T09:38:20.467Z,12.17
2019-02-05T09:40:47.893Z,12.13
2019-02-05T09:43:15.538Z,12.83
2019-02-05T09:45:42.898Z,12.83
2019-02-05T09:48:10.243Z,12.23
2019-02-05T09:50:44.652Z,12.60
2019-02-05T09:53:10.450Z,13.00
2019-02-05T09:55:38.297Z,13.00
2019-02-05T09:58:05.639Z,13.83
2019-02-05T10:00:35.494Z,14.07
2019-02-05T10:03:03.371Z,12.53
2019-02-05T10:05:31.289Z,13.00
2019-02-05T10:07:58.636Z,12.50
2019-02-05T10:10:26.288Z,11.53
2019-02-05T10:12:53.743Z,13.00
2019-02-05T10:15:23.934Z,13.00
2019-02-05T10:17:51.346Z,13.00
2019-02-05T10:20:20.032Z,13.67
2019-02-05T10:22:47.786Z,12.10
2019-02-05T10:25:15.692Z,11.60
2019-02-05T10:27:43.294Z,13.20
2019-02-05T10:30:27.600Z,13.10
2019-02-05T10:32:55.598Z,13.83
2019-02-05T10:35:23.036Z,12.37
2019-02-05T10:37:50.578Z,12.60
2019-02-05T10:40:18.773Z,13.60
2019-02-05T10:42:46.098Z,13.37
2019-02-05T10:45:14.833Z,13.10
2019-02-05T10:47:42.169Z,12.73
2019-02-05T10:50:11.081Z,13.40
2019-02-05T10:52:39.240Z,12.53
2019-02-05T10:55:08.337Z,11.70
2019-02-05T10:57:35.669Z,12.10
2019-02-05T11:00:09.036Z,12.90
2019-02-05T11:02:36.090Z,13.23
2019-02-05T11:05:04.812Z,13.30
2019-02-05T11:07:32.137Z,12.60
2019-02-05T11:09:59.716Z,12.53
2019-02-05T11:12:27.051Z,13.77
2019-02-05T11:14:54.722Z,13.07
2019-02-05T11:17:22.745Z,12.90
2019-02-05T11:19:50.046Z,13.80
2019-02-05T11:22:17.796Z,14.70
2019-02-05T11:24:45.401Z,14.50
2019-02-05T11:27:12.784Z,14.47
2019-02-05T11:29:40.251Z,14.50
2019-02-05T11:32:07.724Z,13.57
2019-02-05T11:34:35.036Z,12.77
2019-02-05T11:37:02.399Z,12.90
2019-02-05T11:39:30.024Z,12.80
2019-02-05T11:41:57.447Z,11.40
2019-02-05T11:44:24.874Z,10.70
2019-02-05T11:46:52.434Z,12.90
2019-02-05T11:49:19.854Z,12.03
2019-02-05T11:51:47.178Z,13.03
2019-02-05T11:54:14.530Z,12.40
2019-02-05T11:56:41.734Z,10.47
2019-02-05T11:59:09.120Z,12.23
2019-02-05T12:01:39.253Z,12.70
2019-02-05T12:04:06.916Z,11.40
2019-02-05T12:06:34.306Z,10.93
2019-02-05T12:09:01.750Z,12.67
2019-02-05T12:11:29.359Z,11.73
2019-02-05T12:13:56.756Z,11.13
2019-02-05T12:16:24.155Z,11.23
2019-02-05T12:18:51.509Z,10.50
2019-02-05T12:21:18.866Z,11.20
2019-02-05T12:23:46.374Z,11.00
2019-02-05T12:26:13.698Z,10.67
2019-02-05T12:28:41.432Z,10.10
2019-02-05T12:31:08.869Z,11.17
2019-02-05T12:33:36.160Z,10.10
2019-02-05T12:36:04.189Z,11.63
2019-02-05T12:38:31.498Z,10.33
2019-02-05T12:40:59.173Z,11.80
2019-02-05T12:43:26.504Z,10.43
2019-02-05T12:45:53.878Z,9.80
2019-02-05T12:48:21.263Z,10.27
2019-02-05T12:50:48.876Z,10.83
2019-02-05T12:53:16.366Z,11.67
2019-02-05T12:55:43.713Z,12.13
2019-02-05T12:58:11.183Z,10.70
2019-02-05T13:00:40.477Z,11.27
2019-02-05T13:03:08.629Z,10.67
2019-02-05T13:05:36.109Z,11.03
2019-02-05T13:08:05.537Z,10.97
2019-02-05T13:10:35.232Z,10.77
2019-02-05T13:13:03.416Z,10.60
2019-02-05T13:15:30.762Z,10.87
2019-02-05T13:17:58.320Z,11.27
2019-02-05T13:20:27.172Z,10.07
2019-02-05T13:22:54.846Z,11.33
2019-02-05T13:25:23.777Z,12.50
2019-02-05T13:27:51.386Z,12.53
2019-02-05T13:30:21.077Z,11.77
2019-02-05T13:32:48.688Z,10.60
2019-02-05T13:35:16.285Z,12.97
2019-02-05T13:37:43.771Z,12.60
2019-02-05T13:40:14.319Z,11.00
2019-02-05T13:42:41.666Z,11.50
2019-02-05T13:45:09.663Z,12.90
2019-02-05T13:47:37.111Z,10.50
2019-02-05T13:50:07.401Z,11.73
2019-02-05T13:52:34.720Z,12.23
2019-02-05T13:55:04.389Z,10.67
2019-02-05T13:57:31.756Z,10.80
2019-02-05T13:59:59.115Z,10.50
2019-02-05T14:02:26.400Z,10.50
2019-02-05T14:04:53.695Z,9.80
2019-02-05T14:07:21.380Z,9.77
2019-02-05T14:09:48.768Z,10.20
2019-02-05T14:12:16.453Z,11.10
2019-02-05T14:14:43.787Z,9.60
2019-02-05T14:17:11.103Z,9.60
2019-02-05T14:19:38.547Z,9.67
2019-02-05T14:22:05.875Z,10.00
2019-02-05T14:24:33.297Z,10.73
2019-02-05T14:27:00.656Z,10.17
2019-02-05T14:29:27.963Z,9.37
2019-02-05T14:31:56.403Z,9.90
2019-02-05T14:34:23.754Z,11.37
2019-02-05T14:36:51.093Z,9.73
2019-02-05T14:39:18.710Z,10.03
2019-02-05T14:41:46.119Z,9.20
2019-02-05T14:44:13.497Z,10.33
2019-02-05T14:46:40.706Z,10.63
2019-02-05T14:49:08.640Z,9.37
2019-02-05T14:51:36.139Z,10.70
2019-02-05T14:54:03.847Z,10.10
2019-02-05T14:56:31.447Z,10.10
2019-02-05T14:58:58.797Z,10.00
2019-02-05T15:01:26.107Z,9.57
2019-02-05T15:03:53.841Z,8.70
2019-02-05T15:06:21.426Z,9.37
2019-02-05T15:08:48.800Z,10.03
2019-02-05T15:11:16.168Z,10.87
2019-02-05T15:13:43.559Z,9.70
2019-02-05T15:16:10.919Z,10.57
2019-02-05T15:18:38.285Z,9.90
2019-02-05T15:21:05.580Z,9.77
2019-02-05T15:23:33.293Z,10.70
2019-02-05T15:26:00.864Z,10.57
2019-02-05T15:28:28.077Z,9.20
2019-02-05T15:30:55.409Z,10.87
2019-02-05T15:33:48.622Z,10.47
2019-02-05T15:36:35.852Z,9.40
2019-02-05T15:39:12.080Z,9.87
2019-02-05T15:41:39.390Z,9.63
2019-02-05T15:44:06.733Z,11.10
2019-02-05T15:46:34.152Z,11.10
2019-02-05T15:49:01.653Z,11.63
2019-02-05T15:51:29.300Z,10.40
2019-02-05T15:53:56.569Z,11.17
2019-02-05T15:56:23.985Z,9.90
2019-02-05T15:58:51.305Z,10.63
2019-02-05T16:01:18.722Z,10.63
2019-02-05T16:03:46.481Z,11.23
2019-02-05T16:06:13.819Z,10.97
2019-02-05T16:08:41.246Z,9.40
2019-02-05T16:11:08.577Z,10.30
2019-02-05T16:13:36.265Z,9.37
2019-02-05T16:16:04.529Z,9.40
2019-02-05T16:18:32.271Z,10.13
2019-02-05T16:20:59.884Z,10.10
2019-02-05T16:23:27.313Z,9.43
2019-02-05T16:25:54.638Z,9.50
2019-02-05T16:28:22.047Z,9.60
2019-02-05T16:30:49.670Z,9.53
2019-02-05T16:33:16.990Z,9.83
2019-02-05T16:35:44.232Z,8.53
2019-02-05T16:38:11.603Z,9.87
2019-02-05T16:40:39.477Z,9.60
2019-02-05T16:43:06.820Z,9.57
2019-02-05T16:45:34.315Z,10.20
2019-02-05T16:48:01.645Z,9.90
2019-02-05T16:50:37.671Z,10.10
2019-02-05T16:53:06.161Z,9.80
2019-02-05T16:55:33.482Z,9.70
2019-02-05T16:58:00.920Z,12.10
2019-02-05T17:00:30.095Z,10.90
2019-02-05T17:02:57.797Z,10.10
2019-02-05T17:05:26.284Z,10.73
2019-02-05T17:07:53.758Z,11.30
2019-02-05T17:10:21.202Z,10.77
2019-02-05T17:12:48.616Z,10.57
2019-02-05T17:15:16.466Z,10.20
2019-02-05T17:17:44.009Z,10.67
2019-02-05T17:20:17.558Z,9.90
2019-02-05T17:22:44.890Z,9.60
2019-02-05T17:25:13.674Z,10.77
2019-02-05T17:27:41.416Z,10.50
2019-02-05T17:30:11.986Z,10.97
2019-02-05T17:32:40.472Z,10.83
2019-02-05T17:35:08.378Z,10.70
2019-02-05T17:37:35.749Z,11.30
2019-02-05T17:40:04.392Z,10.20
2019-02-05T17:42:31.991Z,12.20
2019-02-05T17:44:59.437Z,11.87
2019-02-05T17:47:26.759Z,11.50
2019-02-05T17:49:54.128Z,10.93
2019-02-05T17:52:21.535Z,10.87
2019-02-05T17:54:48.880Z,10.70
2019-02-05T17:57:16.324Z,11.10
2019-02-05T17:59:43.577Z,12.73
2019-02-05T18:02:11.139Z,11.70
2019-02-05T18:04:38.471Z,11.40
2019-02-05T18:07:06.163Z,11.37
2019-02-05T18:09:33.489Z,12.30
2019-02-05T18:12:00.905Z,12.10
2019-02-05T18:14:28.307Z,11.27
2019-02-05T18:16:55.662Z,11.23
2019-02-05T18:19:23.445Z,11.80
2019-02-05T18:21:50.799Z,12.37
2019-02-05T18:24:19.098Z,12.17
2019-02-05T18:26:46.483Z,10.70
2019-02-05T18:29:13.830Z,13.17
2019-02-05T18:31:41.187Z,11.30
2019-02-05T18:34:08.563Z,13.30
2019-02-05T18:36:36.195Z,12.13
2019-02-05T18:39:07.376Z,11.90
2019-02-05T18:41:34.731Z,12.87
2019-02-05T18:44:02.124Z,12.30
2019-02-05T18:46:29.420Z,11.00
2019-02-05T18:49:04.550Z,12.00
2019-02-05T18:51:26.062Z,13.43
2019-02-05T18:53:53.800Z,12.27
2019-02-05T18:56:21.164Z,12.23
2019-02-05T18:58:50.486Z,12.10
2019-02-05T19:01:17.769Z,12.33
2019-02-05T19:03:45.200Z,11.00
2019-02-05T19:06:12.498Z,11.57
2019-02-05T19:08:39.832Z,11.60
2019-02-05T19:11:07.873Z,12.23
2019-02-05T19:13:35.292Z,11.80
2019-02-05T19:16:02.736Z,11.63
2019-02-05T19:18:30.442Z,12.57
2019-02-05T19:20:57.734Z,11.53
2019-02-05T19:23:25.559Z,12.90
2019-02-05T19:25:58.891Z,11.90
2019-02-05T19:28:37.000Z,11.97
2019-02-05T19:31:25.281Z,12.33
2019-02-05T19:33:52.880Z,13.83
2019-02-05T19:36:20.192Z,12.30
2019-02-05T19:38:47.530Z,11.93
2019-02-05T19:41:14.919Z,12.60
2019-02-05T19:43:42.201Z,13.23
2019-02-05T19:46:38.332Z,11.53
2019-02-05T19:49:22.060Z,13.90
2019-02-05T19:51:49.618Z,13.80
2019-02-05T19:54:17.331Z,13.47
2019-02-05T19:56:44.638Z,12.70
2019-02-05T19:59:12.442Z,13.67
2019-02-05T20:01:39.758Z,14.57
2019-02-05T20:04:07.072Z,14.30
2019-02-05T20:06:34.513Z,13.73
2019-02-05T20:09:03.568Z,12.90
2019-02-05T20:11:31.177Z,14.03
2019-02-05T20:13:59.670Z,13.13
2019-02-05T20:16:27.007Z,12.13
2019-02-05T20:18:54.470Z,12.70
2019-02-05T20:21:21.844Z,13.73
2019-02-05T20:23:49.109Z,13.07
2019-02-05T20:26:16.743Z,13.80
2019-02-05T20:28:44.233Z,13.23
2019-02-05T20:31:11.479Z,12.80
2019-02-05T20:33:49.424Z,13.87
2019-02-05T20:36:08.164Z,13.13
2019-02-05T20:38:35.376Z,14.30
2019-02-05T20:41:02.637Z,13.77
2019-02-05T20:43:29.818Z,13.90
2019-02-05T20:45:57.549Z,13.23
2019-02-05T20:48:24.736Z,14.53
2019-02-05T20:50:51.889Z,14.10
2019-02-05T20:53:19.088Z,13.03
2019-02-05T20:55:46.339Z,12.83
2019-02-05T20:58:13.654Z,13.13
2019-02-05T21:00:40.906Z,13.70
2019-02-05T21:03:08.132Z,13.33
2019-02-05T21:05:35.944Z,13.30
2019-02-05T21:08:03.404Z,14.13
2019-02-05T21:10:31.113Z,13.90
2019-02-05T21:12:58.557Z,12.97
2019-02-05T21:15:25.810Z,13.50
2019-02-05T21:17:53.004Z,13.20
2019-02-05T21:20:28.956Z,12.70
2019-02-05T21:22:49.712Z,13.23
2019-02-05T21:25:18.202Z,14.60
2019-02-05T21:27:45.504Z,15.13
2019-02-05T21:30:15.161Z,13.60
2019-02-05T21:32:42.454Z,13.20
2019-02-05T21:35:09.984Z,13.70
2019-02-05T21:37:37.264Z,14.57
2019-02-05T21:40:05.998Z,12.93
2019-02-05T21:42:33.944Z,14.07
2019-02-05T21:45:01.238Z,14.00
2019-02-05T21:47:28.627Z,14.60
2019-02-05T21:49:55.843Z,14.20
2019-02-05T21:52:23.086Z,13.60
2019-02-05T21:54:50.253Z,13.77
2019-02-05T21:57:17.512Z,13.37
2019-02-05T21:59:44.635Z,13.97
2019-02-05T22:02:12.390Z,13.73
2019-02-05T22:04:40.028Z,13.27
2019-02-05T22:07:07.935Z,14.50
2019-02-05T22:09:35.212Z,13.77
2019-02-05T22:12:02.400Z,13.00
2019-02-05T22:14:29.583Z,13.30
2019-02-05T22:16:57.380Z,12.90
2019-02-05T22:19:24.602Z,14.43
2019-02-05T22:21:51.776Z,14.13
2019-02-05T22:24:19.021Z,15.00
2019-02-05T22:26:46.539Z,14.50
2019-02-05T22:29:13.717Z,13.47
2019-02-05T22:31:40.935Z,13.73
2019-02-05T22:34:08.784Z,13.30
2019-02-05T22:36:35.951Z,14.40
2019-02-05T22:39:07.321Z,14.40
2019-02-05T22:41:34.436Z,14.30
2019-02-05T22:44:01.982Z,13.93
2019-02-05T22:46:29.578Z,14.13
2019-02-05T22:48:57.107Z,14.27
2019-02-05T22:51:24.267Z,12.80
2019-02-05T22:53:51.478Z,14.43
2019-02-05T22:56:18.951Z,14.33
2019-02-05T22:58:46.564Z,14.07
2019-02-05T23:01:45.360Z,13.97
2019-02-05T23:04:50.859Z,13.73
2019-02-05T23:07:18.759Z,14.80
2019-02-05T23:10:12.396Z,14.80
2019-02-05T23:12:52.110Z,13.97
2019-02-05T23:15:24.171Z,14.90
2019-02-05T23:17:51.853Z,14.80
2019-02-05T23:20:20.718Z,15.13
2019-02-05T23:22:48.230Z,14.97
2019-02-05T23:25:15.496Z,15.20
2019-02-05T23:27:42.729Z,14.30
2019-02-05T23:30:32.745Z,14.03
2019-02-05T23:33:00.197Z,15.10
2019-02-05T23:35:27.698Z,14.63
2019-02-05T23:37:54.848Z,13.90
2019-02-05T23:40:22.195Z,15.03
2019-02-05T23:42:49.344Z,14.47
2019-02-05T23:45:16.570Z,13.33
2019-02-05T23:47:43.649Z,13.90
2019-02-05T23:50:12.501Z,15.33
2019-02-05T23:52:39.988Z,16.03
2019-02-05T23:55:08.921Z,15.13
2019-02-05T23:57:36.107Z,15.33
